x

Boston 16 Nm East Of Boston, Ma (44013) Wave Buoy

1:50pm - Thu 24th Jul 2014 All times are EDT. -4 hours from GMT.

  • Sig Wave height 1.6ft
  • Swell Direction
  • Peak Period 9s
  • Average Period 4s
  • Wind
    9mph
  • Sea Temp 63°f
  • Air Temp 64°f
  • Sea Pressure 1010.7mb
  • Boston 16 Nm East Of Boston, Ma
  • Boston 16 Nm East Of Boston, Ma

More Historic Weather Station data

Upgrade to MSW Pro to gain access to the past 30 days of data for over 8000 Wavebouys and Weather Stations around the globe.

Join Pro

Comparision Forecast

View Surf forecast
   
Thu 07/24 1:50pm 1.6ft 9s 4s 9
mph
1010.7mb 63f 64f
12:50pm 1.6ft 8s 4s 9 11 mph 1010.9mb 63f 64f
11:50am 2ft 3s 4s 16 18 mph 1010.4mb 63f 64f
10:50am 1.6ft 7s 4s 16 20 mph 1009.8mb 63f 65f
9:50am 1.3ft 7s 5s 13 18 mph 1009.4mb 63f 64f
8:50am 1.3ft 8s 6s 7 11 mph 1009.1mb 64f 65f
7:50am 1.3ft 7s 5s 7
mph
1008.6mb 63f 65f
6:50am 1.3ft 8s 5s 7 9 mph 1008.4mb 63f 67f
5:50am 1.3ft 8s 6s 9
mph
1008.3mb 63f 67f
4:50am 1.3ft 8s 5s 7 9 mph 1007.7mb 63f 67f
3:50am 1.3ft 8s 5s 9 11 mph 1007.8mb 63f 66f
2:50am 1.3ft 9s 5s 9
mph
1007.4mb 65f 67f
1:50am 1.3ft 8s 5s 7 9 mph 1007.5mb 65f 67f
12:50am 1.3ft 8s 4s 7 9 mph 1007.6mb 66f 68f
Wed 07/23 11:50pm 1.6ft 8s 4s 2 4 mph 1009.1mb 66f 69f
10:50pm 1.6ft 8s 4s 7 9 mph 1008.9mb 66f 68f
9:50pm 2ft 8s 4s 9 11 mph 1009mb 66f 68f
8:50pm 2ft 8s 4s 13 16 mph 1008.3mb 65f 70f
7:50pm 2.5ft 8s 4s 13 16 mph 1008mb 65f 70f
6:50pm 2.5ft 8s 4s 16 18 mph 1008.1mb 66f 73f
5:50pm 2.5ft 8s 4s 16 18 mph 1007.5mb 66f 72f
4:50pm 2.5ft 8s 4s 16 20 mph 1008mb 66f 74f
3:50pm 2ft 8s 4s 16 18 mph 1008.5mb 67f 73f
2:50pm 1.6ft 9s 4s 13 16 mph 1009.3mb 67f 74f
1:50pm 1.6ft 8s 5s 16 18 mph 1010.1mb 67f 74f
12:50pm 1.3ft 7s 5s 9 11 mph 1010.7mb 67f 71f
11:50am 1.6ft 9s 5s 9 13 mph 1011.5mb 66f 70f
10:50am 1.6ft 8s 5s 9 11 mph 1012.1mb 66f 69f
9:50am 1.6ft 8s 5s 4 7 mph 1012.9mb 65f 68f
8:50am 2ft 7s 5s 7 9 mph 1013.1mb 65f 67f
7:50am 2ft 8s 4s 11 13 mph 1013.4mb 64f 67f
6:50am 1.6ft 8s 4s 13 16 mph 1013.3mb 64f 67f
5:50am 2ft 7s 4s 16 18 mph 1013.6mb 64f 67f
4:50am 2ft 8s 5s 13
mph
1013.8mb 64f 66f
3:50am 1.6ft 7s 4s 9 11 mph 1014.2mb 64f 66f
2:50am 1.6ft 8s 5s 11 13 mph 1014.4mb 64f 66f
1:50am 1.6ft 8s 5s 11
mph
1015mb 64f 67f
12:50am 1.6ft 7s 5s 11
mph
1015.3mb 64f 67f
Tue 07/22 11:50pm 2ft 7s 5s 9 11 mph 1015.9mb 64f 67f
10:50pm 2ft 7s 5s 11
mph
1016.1mb 64f 67f
9:50pm 2ft 8s 5s 11 13 mph 1016.2mb 64f 68f
8:50pm 2ft 8s 5s 11
mph
1016.3mb 64f 68f
7:50pm 2.5ft 7s 4s 11 13 mph 1016.1mb 64f 70f
6:50pm 2.5ft 7s 4s 16
mph
1016mb 64f 70f
5:50pm 2ft 8s 4s 16 18 mph 1016.6mb 65f 71f
4:50pm 2ft 6s 4s 13 16 mph 1017.3mb 65f 70f
3:50pm 2ft 8s 4s 13 16 mph 1017.9mb 65f 70f
2:50pm 1.6ft 8s 5s 13 16 mph 1018.6mb 65f 69f
1:50pm 1.6ft 7s 5s 9 11 mph 1019.2mb 66f 68f
12:50pm 1.6ft 7s 5s 7 9 mph 1020mb 65f 67f
11:50am 1.6ft 7s 5s 7
mph
1020.3mb 64f 66f
10:50am 1.6ft 7s 5s 7
mph
1020.1mb 64f 65f
9:50am 1.6ft 8s 5s 4
mph
1020.1mb 62f 64f
8:50am 2ft 7s 5s 7
mph
1020.7mb 61f 63f
7:50am 2ft 6s 5s 4 7 mph 1020.8mb 61f 63f
6:50am 2ft 6s 5s 7
mph
1020.8mb 61f 63f
5:50am 2.5ft 6s 5s 7
mph
1021mb 62f 63f
4:50am 2.5ft 6s 6s 7 9 mph 1020.8mb 63f 63f
3:50am 2ft 7s 6s 7
mph
1020.8mb 63f 63f
2:50am 2ft 7s 6s 4 7 mph 1021.1mb 63f 63f
1:50am 2ft 8s 6s 4
mph
1021.2mb 63f 63f
12:50am 2ft 7s 6s 4
mph
1021.5mb 63f 63f
Mon 07/21 11:50pm 1.6ft 7s 5s 4
mph
1021.7mb 63f 63f
10:50pm 2ft 8s 5s 4
mph
1021.8mb 64f 63f
9:50pm 2ft 7s 5s 4
mph
1021.7mb 63f 63f
8:50pm 2ft 8s 5s 4
mph
1021.6mb 64f 63f
7:50pm 2ft 7s 5s 4
mph
1021.3mb 64f 64f
6:50pm 2ft 6s 5s 4
mph
1021.2mb 64f 64f
5:50pm 2.5ft 6s 5s 2
mph
1021.5mb 64f 64f
4:50pm 2.5ft 6s 5s 4
mph
1021.7mb 64f 63f
3:50pm 2ft 6s 5s 2 4 mph 1022.3mb 63f 61f
2:50pm 2ft 7s 4s 9 11 mph 1022.6mb 62f 61f
1:50pm 2ft 7s 4s 9 11 mph 1022.7mb 62f 61f
12:50pm 2ft 7s 4s 11
mph
1022.7mb 62f 61f
11:50am 2ft 4s 4s 9 11 mph 1023.1mb 62f 62f
10:50am 1.6ft 4s 4s 9
mph
1023.1mb 62f 63f
9:50am 1.6ft 4s 4s 9 11 mph 1023mb 61f 62f
8:50am 2ft 8s 4s 9 11 mph 1022.8mb 62f 62f
7:50am 2ft 7s 4s 11 13 mph 1022.4mb 63f 61f
6:50am 2ft 4s 4s 11 13 mph 1021.9mb 63f 61f
5:50am 2ft 7s 4s 13 16 mph 1021.7mb 63f 61f
4:50am 2ft 6s 4s 13
mph
1021.5mb 63f 60f
3:50am 1.6ft 7s 5s 11 13 mph 1021mb 63f 62f
2:50am 1.6ft 7s 5s 7 9 mph 1021.2mb 63f 63f
1:50am 1.6ft 7s 4s 2 4 mph 1021.4mb 63f 63f
12:50am 1.3ft 7s 4s 4 7 mph 1021.7mb 63f 62f
Sun 07/20 11:50pm 1.3ft 8s 5s 2
mph
1021.9mb 63f 62f
10:50pm 1.3ft 8s 5s 7
mph
1021.8mb 63f 62f
9:50pm 1.3ft 8s 4s 9
mph
1021.8mb 63f 63f
8:50pm 1.3ft 8s 4s 7 9 mph 1021.3mb 63f 63f
7:50pm 1.3ft 8s 5s 9
mph
1021.2mb 63f 64f